sensor_id;sensor_type;location;lat;lon;timestamp;P1;durP1;ratioP1;P2;durP2;ratioP2
46415;SDS011;32620;51.704;7.822;2024-01-11T00:01:21;90.40;;;35.20;;
46415;SDS011;32620;51.704;7.822;2024-01-11T00:03:50;84.65;;;36.42;;
46415;SDS011;32620;51.704;7.822;2024-01-11T00:06:19;90.38;;;36.08;;
46415;SDS011;32620;51.704;7.822;2024-01-11T00:08:48;91.93;;;34.60;;
46415;SDS011;32620;51.704;7.822;2024-01-11T00:11:16;98.07;;;36.25;;
46415;SDS011;32620;51.704;7.822;2024-01-11T00:13:43;81.68;;;33.22;;
46415;SDS011;32620;51.704;7.822;2024-01-11T00:16:12;76.45;;;32.97;;
46415;SDS011;32620;51.704;7.822;2024-01-11T00:18:43;85.53;;;35.47;;
46415;SDS011;32620;51.704;7.822;2024-01-11T00:21:15;85.13;;;34.83;;
46415;SDS011;32620;51.704;7.822;2024-01-11T00:23:46;90.10;;;35.58;;
46415;SDS011;32620;51.704;7.822;2024-01-11T00:26:17;87.07;;;36.30;;
46415;SDS011;32620;51.704;7.822;2024-01-11T00:28:48;84.80;;;34.45;;
46415;SDS011;32620;51.704;7.822;2024-01-11T00:31:16;89.53;;;33.50;;
46415;SDS011;32620;51.704;7.822;2024-01-11T00:33:43;91.57;;;34.53;;
46415;SDS011;32620;51.704;7.822;2024-01-11T00:36:10;96.53;;;35.50;;
46415;SDS011;32620;51.704;7.822;2024-01-11T00:38:38;83.45;;;34.50;;
46415;SDS011;32620;51.704;7.822;2024-01-11T00:41:05;90.00;;;35.03;;
46415;SDS011;32620;51.704;7.822;2024-01-11T00:43:32;91.15;;;34.97;;
46415;SDS011;32620;51.704;7.822;2024-01-11T00:46:01;93.00;;;36.40;;
46415;SDS011;32620;51.704;7.822;2024-01-11T00:48:50;93.10;;;35.63;;
46415;SDS011;32620;51.704;7.822;2024-01-11T00:51:16;94.47;;;35.58;;
46415;SDS011;32620;51.704;7.822;2024-01-11T00:53:42;92.53;;;35.25;;
46415;SDS011;32620;51.704;7.822;2024-01-11T00:56:23;91.70;;;36.25;;
46415;SDS011;32620;51.704;7.822;2024-01-11T00:58:49;88.22;;;35.13;;
46415;SDS011;32620;51.704;7.822;2024-01-11T01:01:16;85.40;;;35.47;;
46415;SDS011;32620;51.704;7.822;2024-01-11T01:03:43;97.22;;;36.28;;
46415;SDS011;32620;51.704;7.822;2024-01-11T01:06:08;92.68;;;35.17;;
46415;SDS011;32620;51.704;7.822;2024-01-11T01:08:36;94.70;;;36.67;;
46415;SDS011;32620;51.704;7.822;2024-01-11T01:11:46;83.93;;;34.63;;
46415;SDS011;32620;51.704;7.822;2024-01-11T01:14:14;87.90;;;35.30;;
46415;SDS011;32620;51.704;7.822;2024-01-11T01:16:52;92.20;;;35.55;;
46415;SDS011;32620;51.704;7.822;2024-01-11T01:19:38;97.10;;;37.10;;
46415;SDS011;32620;51.704;7.822;2024-01-11T01:22:15;94.50;;;36.13;;
46415;SDS011;32620;51.704;7.822;2024-01-11T01:24:42;96.78;;;37.67;;
46415;SDS011;32620;51.704;7.822;2024-01-11T01:27:09;91.22;;;35.72;;
46415;SDS011;32620;51.704;7.822;2024-01-11T01:29:36;93.32;;;34.65;;
46415;SDS011;32620;51.704;7.822;2024-01-11T01:32:03;98.70;;;37.15;;
46415;SDS011;32620;51.704;7.822;2024-01-11T01:34:37;85.68;;;35.53;;
46415;SDS011;32620;51.704;7.822;2024-01-11T01:37:06;94.75;;;35.17;;
46415;SDS011;32620;51.704;7.822;2024-01-11T01:39:37;97.05;;;37.10;;
46415;SDS011;32620;51.704;7.822;2024-01-11T01:42:06;88.07;;;34.72;;
46415;SDS011;32620;51.704;7.822;2024-01-11T01:44:35;97.90;;;36.38;;
46415;SDS011;32620;51.704;7.822;2024-01-11T01:47:05;95.82;;;36.28;;
46415;SDS011;32620;51.704;7.822;2024-01-11T01:49:35;93.43;;;35.30;;
46415;SDS011;32620;51.704;7.822;2024-01-11T01:52:01;97.15;;;36.13;;
46415;SDS011;32620;51.704;7.822;2024-01-11T01:54:28;84.75;;;34.88;;
46415;SDS011;32620;51.704;7.822;2024-01-11T01:56:57;97.75;;;35.67;;
46415;SDS011;32620;51.704;7.822;2024-01-11T01:59:25;89.28;;;35.15;;
46415;SDS011;32620;51.704;7.822;2024-01-11T02:01:52;94.40;;;35.58;;
46415;SDS011;32620;51.704;7.822;2024-01-11T02:04:18;86.57;;;34.95;;
46415;SDS011;32620;51.704;7.822;2024-01-11T02:06:44;88.30;;;35.53;;
46415;SDS011;32620;51.704;7.822;2024-01-11T02:09:11;93.82;;;36.67;;
46415;SDS011;32620;51.704;7.822;2024-01-11T02:11:38;94.40;;;36.80;;
46415;SDS011;32620;51.704;7.822;2024-01-11T02:14:04;103.15;;;38.65;;
46415;SDS011;32620;51.704;7.822;2024-01-11T02:16:30;96.20;;;36.08;;
46415;SDS011;32620;51.704;7.822;2024-01-11T02:18:56;91.18;;;35.63;;
46415;SDS011;32620;51.704;7.822;2024-01-11T02:21:21;100.50;;;36.72;;
46415;SDS011;32620;51.704;7.822;2024-01-11T02:24:04;97.03;;;36.05;;
46415;SDS011;32620;51.704;7.822;2024-01-11T02:26:30;101.15;;;36.58;;
46415;SDS011;32620;51.704;7.822;2024-01-11T02:28:56;98.82;;;36.40;;
46415;SDS011;32620;51.704;7.822;2024-01-11T02:31:22;84.32;;;34.75;;
46415;SDS011;32620;51.704;7.822;2024-01-11T02:33:48;99.65;;;35.47;;
46415;SDS011;32620;51.704;7.822;2024-01-11T02:36:14;93.68;;;36.67;;
46415;SDS011;32620;51.704;7.822;2024-01-11T02:38:41;89.22;;;36.78;;
46415;SDS011;32620;51.704;7.822;2024-01-11T02:41:07;88.55;;;35.85;;
46415;SDS011;32620;51.704;7.822;2024-01-11T02:43:33;96.32;;;35.55;;
46415;SDS011;32620;51.704;7.822;2024-01-11T02:46:01;90.85;;;35.45;;
46415;SDS011;32620;51.704;7.822;2024-01-11T02:48:28;89.82;;;35.22;;
46415;SDS011;32620;51.704;7.822;2024-01-11T02:50:54;93.60;;;35.92;;
46415;SDS011;32620;51.704;7.822;2024-01-11T02:53:22;86.60;;;34.22;;
46415;SDS011;32620;51.704;7.822;2024-01-11T02:55:48;91.65;;;35.28;;
46415;SDS011;32620;51.704;7.822;2024-01-11T02:58:14;101.80;;;36.30;;
46415;SDS011;32620;51.704;7.822;2024-01-11T03:00:40;97.60;;;38.03;;
46415;SDS011;32620;51.704;7.822;2024-01-11T03:03:05;102.53;;;37.65;;
46415;SDS011;32620;51.704;7.822;2024-01-11T03:05:31;92.25;;;37.33;;
46415;SDS011;32620;51.704;7.822;2024-01-11T03:07:56;97.43;;;37.65;;
46415;SDS011;32620;51.704;7.822;2024-01-11T03:10:22;100.00;;;37.38;;
46415;SDS011;32620;51.704;7.822;2024-01-11T03:12:48;97.78;;;37.45;;
46415;SDS011;32620;51.704;7.822;2024-01-11T03:15:14;101.95;;;37.67;;
46415;SDS011;32620;51.704;7.822;2024-01-11T03:17:40;98.80;;;38.17;;
46415;SDS011;32620;51.704;7.822;2024-01-11T03:20:06;93.60;;;36.65;;
46415;SDS011;32620;51.704;7.822;2024-01-11T03:22:33;101.95;;;38.00;;
46415;SDS011;32620;51.704;7.822;2024-01-11T03:24:59;97.70;;;37.22;;
46415;SDS011;32620;51.704;7.822;2024-01-11T03:27:24;105.13;;;36.33;;
46415;SDS011;32620;51.704;7.822;2024-01-11T03:29:50;103.75;;;37.53;;
46415;SDS011;32620;51.704;7.822;2024-01-11T03:32:15;99.78;;;37.35;;
46415;SDS011;32620;51.704;7.822;2024-01-11T03:34:41;95.25;;;35.83;;
46415;SDS011;32620;51.704;7.822;2024-01-11T03:37:07;96.22;;;37.70;;
46415;SDS011;32620;51.704;7.822;2024-01-11T03:39:33;95.47;;;35.60;;
46415;SDS011;32620;51.704;7.822;2024-01-11T03:41:59;100.85;;;35.97;;
46415;SDS011;32620;51.704;7.822;2024-01-11T03:44:24;95.07;;;37.15;;
46415;SDS011;32620;51.704;7.822;2024-01-11T03:46:50;94.22;;;35.95;;
46415;SDS011;32620;51.704;7.822;2024-01-11T03:49:16;95.95;;;37.60;;
46415;SDS011;32620;51.704;7.822;2024-01-11T03:51:42;93.35;;;35.38;;
46415;SDS011;32620;51.704;7.822;2024-01-11T03:54:08;97.18;;;36.55;;
46415;SDS011;32620;51.704;7.822;2024-01-11T03:56:36;89.60;;;35.10;;
46415;SDS011;32620;51.704;7.822;2024-01-11T03:59:04;87.80;;;34.70;;
46415;SDS011;32620;51.704;7.822;2024-01-11T04:01:30;91.85;;;35.13;;
46415;SDS011;32620;51.704;7.822;2024-01-11T04:03:56;86.30;;;34.13;;
46415;SDS011;32620;51.704;7.822;2024-01-11T04:06:22;96.25;;;35.75;;
46415;SDS011;32620;51.704;7.822;2024-01-11T04:08:49;83.20;;;33.55;;
46415;SDS011;32620;51.704;7.822;2024-01-11T04:11:15;85.38;;;35.22;;
46415;SDS011;32620;51.704;7.822;2024-01-11T04:13:40;96.30;;;37.05;;
46415;SDS011;32620;51.704;7.822;2024-01-11T04:16:06;98.82;;;36.97;;
46415;SDS011;32620;51.704;7.822;2024-01-11T04:18:32;107.35;;;37.55;;
46415;SDS011;32620;51.704;7.822;2024-01-11T04:20:58;94.75;;;36.80;;
46415;SDS011;32620;51.704;7.822;2024-01-11T04:23:23;96.68;;;37.85;;
46415;SDS011;32620;51.704;7.822;2024-01-11T04:25:49;103.35;;;37.35;;
46415;SDS011;32620;51.704;7.822;2024-01-11T04:28:16;106.82;;;38.53;;
46415;SDS011;32620;51.704;7.822;2024-01-11T04:30:42;101.20;;;39.85;;
46415;SDS011;32620;51.704;7.822;2024-01-11T04:33:08;112.05;;;40.13;;
46415;SDS011;32620;51.704;7.822;2024-01-11T04:35:33;110.53;;;40.75;;
46415;SDS011;32620;51.704;7.822;2024-01-11T04:37:59;116.53;;;41.90;;
46415;SDS011;32620;51.704;7.822;2024-01-11T04:40:25;122.78;;;43.05;;
46415;SDS011;32620;51.704;7.822;2024-01-11T04:42:51;98.45;;;37.92;;
46415;SDS011;32620;51.704;7.822;2024-01-11T04:45:17;110.07;;;39.67;;
46415;SDS011;32620;51.704;7.822;2024-01-11T04:47:43;107.15;;;40.65;;
46415;SDS011;32620;51.704;7.822;2024-01-11T04:50:08;95.35;;;37.30;;
46415;SDS011;32620;51.704;7.822;2024-01-11T04:52:34;99.38;;;37.67;;
46415;SDS011;32620;51.704;7.822;2024-01-11T04:55:00;106.18;;;38.42;;
46415;SDS011;32620;51.704;7.822;2024-01-11T04:57:26;107.43;;;39.25;;
46415;SDS011;32620;51.704;7.822;2024-01-11T04:59:52;95.85;;;38.22;;
46415;SDS011;32620;51.704;7.822;2024-01-11T05:02:20;98.40;;;37.50;;
46415;SDS011;32620;51.704;7.822;2024-01-11T05:04:45;99.20;;;36.35;;
46415;SDS011;32620;51.704;7.822;2024-01-11T05:07:11;96.97;;;39.28;;
46415;SDS011;32620;51.704;7.822;2024-01-11T05:09:37;97.97;;;38.88;;
46415;SDS011;32620;51.704;7.822;2024-01-11T05:12:03;98.97;;;37.90;;
46415;SDS011;32620;51.704;7.822;2024-01-11T05:14:29;94.82;;;37.30;;
46415;SDS011;32620;51.704;7.822;2024-01-11T05:16:55;107.85;;;37.55;;
46415;SDS011;32620;51.704;7.822;2024-01-11T05:19:21;102.28;;;37.08;;
46415;SDS011;32620;51.704;7.822;2024-01-11T05:21:46;104.15;;;37.08;;
46415;SDS011;32620;51.704;7.822;2024-01-11T05:24:12;107.57;;;38.78;;
46415;SDS011;32620;51.704;7.822;2024-01-11T05:26:37;97.40;;;35.85;;
46415;SDS011;32620;51.704;7.822;2024-01-11T05:29:03;99.18;;;36.47;;
46415;SDS011;32620;51.704;7.822;2024-01-11T05:31:29;101.55;;;37.85;;
46415;SDS011;32620;51.704;7.822;2024-01-11T05:33:55;99.05;;;38.05;;
46415;SDS011;32620;51.704;7.822;2024-01-11T05:36:21;94.40;;;37.45;;
46415;SDS011;32620;51.704;7.822;2024-01-11T05:38:46;97.30;;;35.28;;
46415;SDS011;32620;51.704;7.822;2024-01-11T05:41:12;92.75;;;37.33;;
46415;SDS011;32620;51.704;7.822;2024-01-11T05:43:40;94.38;;;39.45;;
46415;SDS011;32620;51.704;7.822;2024-01-11T05:46:06;94.80;;;37.63;;
46415;SDS011;32620;51.704;7.822;2024-01-11T05:48:32;101.07;;;38.60;;
46415;SDS011;32620;51.704;7.822;2024-01-11T05:50:57;103.82;;;38.50;;
46415;SDS011;32620;51.704;7.822;2024-01-11T05:53:23;106.10;;;39.65;;
46415;SDS011;32620;51.704;7.822;2024-01-11T05:55:49;100.65;;;39.00;;
46415;SDS011;32620;51.704;7.822;2024-01-11T05:58:15;95.93;;;36.10;;
46415;SDS011;32620;51.704;7.822;2024-01-11T06:00:40;100.28;;;37.95;;
46415;SDS011;32620;51.704;7.822;2024-01-11T06:03:06;94.30;;;38.33;;
46415;SDS011;32620;51.704;7.822;2024-01-11T06:05:32;95.72;;;36.67;;
46415;SDS011;32620;51.704;7.822;2024-01-11T06:07:58;96.50;;;37.30;;
46415;SDS011;32620;51.704;7.822;2024-01-11T06:10:24;100.32;;;39.05;;
46415;SDS011;32620;51.704;7.822;2024-01-11T06:12:49;98.60;;;38.30;;
46415;SDS011;32620;51.704;7.822;2024-01-11T06:15:15;95.90;;;37.65;;
46415;SDS011;32620;51.704;7.822;2024-01-11T06:17:41;96.97;;;36.95;;
46415;SDS011;32620;51.704;7.822;2024-01-11T06:20:06;98.22;;;37.45;;
46415;SDS011;32620;51.704;7.822;2024-01-11T06:22:32;98.05;;;36.67;;
46415;SDS011;32620;51.704;7.822;2024-01-11T06:24:57;105.97;;;37.50;;
46415;SDS011;32620;51.704;7.822;2024-01-11T06:27:24;98.85;;;37.67;;
46415;SDS011;32620;51.704;7.822;2024-01-11T06:29:50;97.40;;;39.22;;
46415;SDS011;32620;51.704;7.822;2024-01-11T06:32:16;97.47;;;37.90;;
46415;SDS011;32620;51.704;7.822;2024-01-11T06:34:41;101.60;;;37.55;;
46415;SDS011;32620;51.704;7.822;2024-01-11T06:37:10;100.80;;;36.42;;
46415;SDS011;32620;51.704;7.822;2024-01-11T06:39:36;102.40;;;37.38;;
46415;SDS011;32620;51.704;7.822;2024-01-11T06:42:02;99.88;;;40.30;;
46415;SDS011;32620;51.704;7.822;2024-01-11T06:44:28;110.40;;;41.72;;
46415;SDS011;32620;51.704;7.822;2024-01-11T06:46:53;98.18;;;39.47;;
46415;SDS011;32620;51.704;7.822;2024-01-11T06:49:19;104.85;;;39.63;;
46415;SDS011;32620;51.704;7.822;2024-01-11T06:51:44;106.15;;;40.67;;
46415;SDS011;32620;51.704;7.822;2024-01-11T06:54:10;100.55;;;38.17;;
46415;SDS011;32620;51.704;7.822;2024-01-11T06:56:35;117.38;;;40.75;;
46415;SDS011;32620;51.704;7.822;2024-01-11T06:59:01;102.93;;;39.67;;
46415;SDS011;32620;51.704;7.822;2024-01-11T07:01:27;108.50;;;39.40;;
46415;SDS011;32620;51.704;7.822;2024-01-11T07:03:52;102.65;;;38.67;;
46415;SDS011;32620;51.704;7.822;2024-01-11T07:06:18;101.85;;;38.28;;
46415;SDS011;32620;51.704;7.822;2024-01-11T07:08:43;100.03;;;39.63;;
46415;SDS011;32620;51.704;7.822;2024-01-11T07:11:09;108.35;;;40.05;;
46415;SDS011;32620;51.704;7.822;2024-01-11T07:13:36;99.68;;;39.60;;
46415;SDS011;32620;51.704;7.822;2024-01-11T07:16:01;105.57;;;38.65;;
46415;SDS011;32620;51.704;7.822;2024-01-11T07:18:28;103.55;;;40.53;;
46415;SDS011;32620;51.704;7.822;2024-01-11T07:20:55;101.65;;;39.65;;
46415;SDS011;32620;51.704;7.822;2024-01-11T07:23:23;105.88;;;40.50;;
46415;SDS011;32620;51.704;7.822;2024-01-11T07:25:49;106.63;;;40.17;;
46415;SDS011;32620;51.704;7.822;2024-01-11T07:28:15;104.85;;;40.35;;
46415;SDS011;32620;51.704;7.822;2024-01-11T07:30:42;105.93;;;42.13;;
46415;SDS011;32620;51.704;7.822;2024-01-11T07:33:07;103.80;;;40.55;;
46415;SDS011;32620;51.704;7.822;2024-01-11T07:35:34;99.13;;;36.90;;
46415;SDS011;32620;51.704;7.822;2024-01-11T07:37:59;94.72;;;37.97;;
46415;SDS011;32620;51.704;7.822;2024-01-11T07:40:25;103.72;;;39.92;;
46415;SDS011;32620;51.704;7.822;2024-01-11T07:42:51;112.55;;;40.65;;
46415;SDS011;32620;51.704;7.822;2024-01-11T07:45:17;99.07;;;39.13;;
46415;SDS011;32620;51.704;7.822;2024-01-11T07:47:42;98.38;;;38.70;;
46415;SDS011;32620;51.704;7.822;2024-01-11T07:50:08;103.43;;;40.35;;
46415;SDS011;32620;51.704;7.822;2024-01-11T07:52:35;101.07;;;40.30;;
46415;SDS011;32620;51.704;7.822;2024-01-11T07:55:02;102.72;;;40.15;;
46415;SDS011;32620;51.704;7.822;2024-01-11T07:57:32;96.32;;;40.05;;
46415;SDS011;32620;51.704;7.822;2024-01-11T07:59:59;113.25;;;43.33;;
46415;SDS011;32620;51.704;7.822;2024-01-11T08:02:25;114.43;;;42.63;;
46415;SDS011;32620;51.704;7.822;2024-01-11T08:04:51;96.75;;;41.28;;
46415;SDS011;32620;51.704;7.822;2024-01-11T08:07:16;106.95;;;41.75;;
46415;SDS011;32620;51.704;7.822;2024-01-11T08:09:42;105.55;;;44.80;;
46415;SDS011;32620;51.704;7.822;2024-01-11T08:12:10;98.80;;;43.45;;
46415;SDS011;32620;51.704;7.822;2024-01-11T08:14:36;102.55;;;44.50;;
46415;SDS011;32620;51.704;7.822;2024-01-11T08:17:02;103.75;;;42.42;;
46415;SDS011;32620;51.704;7.822;2024-01-11T08:19:30;101.28;;;41.08;;
46415;SDS011;32620;51.704;7.822;2024-01-11T08:21:59;91.68;;;40.00;;
46415;SDS011;32620;51.704;7.822;2024-01-11T08:24:25;97.03;;;40.63;;
46415;SDS011;32620;51.704;7.822;2024-01-11T08:26:51;94.30;;;38.97;;
46415;SDS011;32620;51.704;7.822;2024-01-11T08:29:17;88.30;;;38.22;;
46415;SDS011;32620;51.704;7.822;2024-01-11T08:31:45;94.10;;;39.70;;
46415;SDS011;32620;51.704;7.822;2024-01-11T08:34:10;91.25;;;38.88;;
46415;SDS011;32620;51.704;7.822;2024-01-11T08:36:36;89.75;;;41.22;;
46415;SDS011;32620;51.704;7.822;2024-01-11T08:39:03;94.22;;;37.72;;
46415;SDS011;32620;51.704;7.822;2024-01-11T08:41:31;90.20;;;38.25;;
46415;SDS011;32620;51.704;7.822;2024-01-11T08:43:57;83.15;;;36.15;;
46415;SDS011;32620;51.704;7.822;2024-01-11T08:46:24;85.63;;;36.17;;
46415;SDS011;32620;51.704;7.822;2024-01-11T08:48:51;76.80;;;36.60;;
46415;SDS011;32620;51.704;7.822;2024-01-11T08:51:17;71.05;;;33.45;;
46415;SDS011;32620;51.704;7.822;2024-01-11T08:53:42;71.93;;;35.00;;
46415;SDS011;32620;51.704;7.822;2024-01-11T08:56:08;69.88;;;34.13;;
46415;SDS011;32620;51.704;7.822;2024-01-11T08:58:34;77.10;;;36.20;;
46415;SDS011;32620;51.704;7.822;2024-01-11T09:00:59;74.57;;;35.03;;
46415;SDS011;32620;51.704;7.822;2024-01-11T09:03:25;82.75;;;39.95;;
46415;SDS011;32620;51.704;7.822;2024-01-11T09:05:51;69.85;;;35.40;;
46415;SDS011;32620;51.704;7.822;2024-01-11T09:08:16;74.50;;;35.72;;
46415;SDS011;32620;51.704;7.822;2024-01-11T09:10:42;70.15;;;36.53;;
46415;SDS011;32620;51.704;7.822;2024-01-11T09:13:07;65.05;;;35.22;;
46415;SDS011;32620;51.704;7.822;2024-01-11T09:15:33;71.90;;;36.33;;
46415;SDS011;32620;51.704;7.822;2024-01-11T09:17:59;76.57;;;37.80;;
46415;SDS011;32620;51.704;7.822;2024-01-11T09:20:25;69.57;;;36.50;;
46415;SDS011;32620;51.704;7.822;2024-01-11T09:22:51;66.55;;;36.00;;
46415;SDS011;32620;51.704;7.822;2024-01-11T09:25:16;73.60;;;35.85;;
46415;SDS011;32620;51.704;7.822;2024-01-11T09:27:42;71.05;;;36.83;;
46415;SDS011;32620;51.704;7.822;2024-01-11T09:30:07;71.43;;;34.90;;
46415;SDS011;32620;51.704;7.822;2024-01-11T09:32:34;69.63;;;34.20;;
46415;SDS011;32620;51.704;7.822;2024-01-11T09:34:59;72.10;;;35.03;;
46415;SDS011;32620;51.704;7.822;2024-01-11T09:37:25;64.38;;;33.65;;
46415;SDS011;32620;51.704;7.822;2024-01-11T09:39:50;74.82;;;35.58;;
46415;SDS011;32620;51.704;7.822;2024-01-11T09:42:16;70.18;;;33.58;;
46415;SDS011;32620;51.704;7.822;2024-01-11T09:44:43;75.20;;;34.92;;
46415;SDS011;32620;51.704;7.822;2024-01-11T09:47:09;74.97;;;36.92;;
46415;SDS011;32620;51.704;7.822;2024-01-11T09:49:36;73.93;;;35.20;;
46415;SDS011;32620;51.704;7.822;2024-01-11T09:52:03;78.85;;;35.58;;
46415;SDS011;32620;51.704;7.822;2024-01-11T09:54:30;68.60;;;34.80;;
46415;SDS011;32620;51.704;7.822;2024-01-11T09:56:56;77.07;;;35.65;;
46415;SDS011;32620;51.704;7.822;2024-01-11T09:59:24;72.10;;;37.25;;
46415;SDS011;32620;51.704;7.822;2024-01-11T10:01:51;73.70;;;36.22;;
46415;SDS011;32620;51.704;7.822;2024-01-11T10:04:17;75.82;;;34.53;;
46415;SDS011;32620;51.704;7.822;2024-01-11T10:06:43;67.60;;;33.55;;
46415;SDS011;32620;51.704;7.822;2024-01-11T10:09:09;66.70;;;33.83;;
46415;SDS011;32620;51.704;7.822;2024-01-11T10:11:36;65.10;;;32.75;;
46415;SDS011;32620;51.704;7.822;2024-01-11T10:14:03;68.72;;;35.90;;
46415;SDS011;32620;51.704;7.822;2024-01-11T10:16:30;68.13;;;36.85;;
46415;SDS011;32620;51.704;7.822;2024-01-11T10:18:56;72.93;;;35.95;;
46415;SDS011;32620;51.704;7.822;2024-01-11T10:21:22;72.63;;;36.15;;
46415;SDS011;32620;51.704;7.822;2024-01-11T10:23:48;70.72;;;35.30;;
46415;SDS011;32620;51.704;7.822;2024-01-11T10:26:15;72.85;;;37.60;;
46415;SDS011;32620;51.704;7.822;2024-01-11T10:28:45;69.80;;;36.53;;
46415;SDS011;32620;51.704;7.822;2024-01-11T10:31:11;68.50;;;36.53;;
46415;SDS011;32620;51.704;7.822;2024-01-11T10:33:37;68.82;;;36.58;;
46415;SDS011;32620;51.704;7.822;2024-01-11T10:36:03;66.65;;;35.45;;
46415;SDS011;32620;51.704;7.822;2024-01-11T10:38:29;65.40;;;35.15;;
46415;SDS011;32620;51.704;7.822;2024-01-11T10:40:55;63.28;;;36.15;;
46415;SDS011;32620;51.704;7.822;2024-01-11T10:43:25;66.60;;;36.42;;
46415;SDS011;32620;51.704;7.822;2024-01-11T10:45:51;76.78;;;38.60;;
46415;SDS011;32620;51.704;7.822;2024-01-11T10:48:22;65.75;;;37.80;;
46415;SDS011;32620;51.704;7.822;2024-01-11T10:50:54;72.10;;;38.38;;
46415;SDS011;32620;51.704;7.822;2024-01-11T10:53:54;69.22;;;37.67;;
46415;SDS011;32620;51.704;7.822;2024-01-11T10:56:11;69.75;;;36.63;;
46415;SDS011;32620;51.704;7.822;2024-01-11T10:58:37;66.40;;;37.25;;
46415;SDS011;32620;51.704;7.822;2024-01-11T11:01:07;64.28;;;36.50;;
46415;SDS011;32620;51.704;7.822;2024-01-11T11:03:33;64.07;;;36.00;;
46415;SDS011;32620;51.704;7.822;2024-01-11T11:06:00;60.75;;;34.67;;
46415;SDS011;32620;51.704;7.822;2024-01-11T11:08:26;64.32;;;36.30;;
46415;SDS011;32620;51.704;7.822;2024-01-11T11:10:56;62.05;;;35.25;;
46415;SDS011;32620;51.704;7.822;2024-01-11T11:13:23;62.85;;;36.10;;
46415;SDS011;32620;51.704;7.822;2024-01-11T11:15:49;66.07;;;38.53;;
46415;SDS011;32620;51.704;7.822;2024-01-11T11:18:15;68.88;;;38.92;;
46415;SDS011;32620;51.704;7.822;2024-01-11T11:20:41;63.38;;;34.97;;
46415;SDS011;32620;51.704;7.822;2024-01-11T11:23:08;60.03;;;33.70;;
46415;SDS011;32620;51.704;7.822;2024-01-11T11:25:35;64.88;;;34.78;;
46415;SDS011;32620;51.704;7.822;2024-01-11T11:28:01;61.33;;;35.60;;
46415;SDS011;32620;51.704;7.822;2024-01-11T11:30:30;55.35;;;31.75;;
46415;SDS011;32620;51.704;7.822;2024-01-11T11:32:56;68.30;;;33.97;;
46415;SDS011;32620;51.704;7.822;2024-01-11T11:35:23;59.45;;;33.78;;
46415;SDS011;32620;51.704;7.822;2024-01-11T11:37:53;57.08;;;31.90;;
46415;SDS011;32620;51.704;7.822;2024-01-11T11:40:20;62.63;;;32.70;;
46415;SDS011;32620;51.704;7.822;2024-01-11T11:42:48;62.83;;;32.72;;
46415;SDS011;32620;51.704;7.822;2024-01-11T11:45:13;59.28;;;32.13;;
46415;SDS011;32620;51.704;7.822;2024-01-11T11:47:50;62.28;;;32.83;;
46415;SDS011;32620;51.704;7.822;2024-01-11T11:50:15;66.95;;;33.10;;
46415;SDS011;32620;51.704;7.822;2024-01-11T11:52:42;63.85;;;33.25;;
46415;SDS011;32620;51.704;7.822;2024-01-11T11:55:10;61.70;;;31.35;;
46415;SDS011;32620;51.704;7.822;2024-01-11T11:57:37;66.25;;;32.45;;
46415;SDS011;32620;51.704;7.822;2024-01-11T12:00:03;61.38;;;30.23;;
46415;SDS011;32620;51.704;7.822;2024-01-11T12:02:31;63.30;;;29.73;;
46415;SDS011;32620;51.704;7.822;2024-01-11T12:04:57;61.78;;;29.38;;
46415;SDS011;32620;51.704;7.822;2024-01-11T12:07:23;61.03;;;27.92;;
46415;SDS011;32620;51.704;7.822;2024-01-11T12:09:49;57.00;;;26.85;;
46415;SDS011;32620;51.704;7.822;2024-01-11T12:12:16;53.22;;;24.58;;
46415;SDS011;32620;51.704;7.822;2024-01-11T12:14:45;50.65;;;24.65;;
46415;SDS011;32620;51.704;7.822;2024-01-11T12:17:11;59.70;;;26.70;;
46415;SDS011;32620;51.704;7.822;2024-01-11T12:19:37;57.25;;;25.85;;
46415;SDS011;32620;51.704;7.822;2024-01-11T12:22:03;50.58;;;24.02;;
46415;SDS011;32620;51.704;7.822;2024-01-11T12:24:29;46.50;;;22.27;;
46415;SDS011;32620;51.704;7.822;2024-01-11T12:26:56;42.70;;;21.02;;
46415;SDS011;32620;51.704;7.822;2024-01-11T12:29:22;41.63;;;19.77;;
46415;SDS011;32620;51.704;7.822;2024-01-11T12:31:48;44.45;;;19.40;;
46415;SDS011;32620;51.704;7.822;2024-01-11T12:34:15;43.40;;;18.83;;
46415;SDS011;32620;51.704;7.822;2024-01-11T12:36:41;44.05;;;19.17;;
46415;SDS011;32620;51.704;7.822;2024-01-11T12:39:07;44.30;;;19.83;;
46415;SDS011;32620;51.704;7.822;2024-01-11T12:41:34;41.10;;;21.00;;
46415;SDS011;32620;51.704;7.822;2024-01-11T12:44:06;40.55;;;19.20;;
46415;SDS011;32620;51.704;7.822;2024-01-11T12:46:32;38.65;;;17.48;;
46415;SDS011;32620;51.704;7.822;2024-01-11T12:48:57;33.22;;;14.60;;
46415;SDS011;32620;51.704;7.822;2024-01-11T12:51:23;40.10;;;17.50;;
46415;SDS011;32620;51.704;7.822;2024-01-11T12:53:51;29.50;;;15.23;;
46415;SDS011;32620;51.704;7.822;2024-01-11T12:56:18;33.20;;;14.93;;
46415;SDS011;32620;51.704;7.822;2024-01-11T12:58:46;32.30;;;15.35;;
46415;SDS011;32620;51.704;7.822;2024-01-11T13:01:12;28.17;;;13.18;;
46415;SDS011;32620;51.704;7.822;2024-01-11T13:03:39;30.38;;;13.32;;
46415;SDS011;32620;51.704;7.822;2024-01-11T13:06:08;32.90;;;14.30;;
46415;SDS011;32620;51.704;7.822;2024-01-11T13:08:34;27.80;;;12.45;;
46415;SDS011;32620;51.704;7.822;2024-01-11T13:11:02;30.15;;;13.82;;
46415;SDS011;32620;51.704;7.822;2024-01-11T13:13:32;29.98;;;12.65;;
46415;SDS011;32620;51.704;7.822;2024-01-11T13:15:59;29.73;;;12.18;;
46415;SDS011;32620;51.704;7.822;2024-01-11T13:18:25;29.65;;;12.30;;
46415;SDS011;32620;51.704;7.822;2024-01-11T13:20:50;26.00;;;12.20;;
46415;SDS011;32620;51.704;7.822;2024-01-11T13:23:17;29.20;;;12.93;;
46415;SDS011;32620;51.704;7.822;2024-01-11T13:25:45;31.73;;;14.70;;
46415;SDS011;32620;51.704;7.822;2024-01-11T13:28:11;32.20;;;13.32;;
46415;SDS011;32620;51.704;7.822;2024-01-11T13:30:38;32.05;;;13.85;;
46415;SDS011;32620;51.704;7.822;2024-01-11T13:33:06;30.88;;;14.25;;
46415;SDS011;32620;51.704;7.822;2024-01-11T13:35:34;32.17;;;13.88;;
46415;SDS011;32620;51.704;7.822;2024-01-11T13:38:00;38.20;;;15.07;;
46415;SDS011;32620;51.704;7.822;2024-01-11T13:40:26;28.60;;;13.82;;
46415;SDS011;32620;51.704;7.822;2024-01-11T13:42:54;33.47;;;14.48;;
46415;SDS011;32620;51.704;7.822;2024-01-11T13:45:20;34.53;;;14.95;;
46415;SDS011;32620;51.704;7.822;2024-01-11T13:47:46;35.47;;;14.18;;
46415;SDS011;32620;51.704;7.822;2024-01-11T13:50:11;33.78;;;14.27;;
46415;SDS011;32620;51.704;7.822;2024-01-11T13:52:37;34.67;;;15.15;;
46415;SDS011;32620;51.704;7.822;2024-01-11T13:55:03;31.95;;;13.95;;
46415;SDS011;32620;51.704;7.822;2024-01-11T13:57:29;33.90;;;14.93;;
46415;SDS011;32620;51.704;7.822;2024-01-11T13:59:55;31.15;;;13.35;;
46415;SDS011;32620;51.704;7.822;2024-01-11T14:02:20;33.55;;;15.15;;
46415;SDS011;32620;51.704;7.822;2024-01-11T14:04:46;32.15;;;15.27;;
46415;SDS011;32620;51.704;7.822;2024-01-11T14:07:11;39.67;;;16.30;;
46415;SDS011;32620;51.704;7.822;2024-01-11T14:09:37;34.53;;;15.18;;
46415;SDS011;32620;51.704;7.822;2024-01-11T14:12:03;31.38;;;14.57;;
46415;SDS011;32620;51.704;7.822;2024-01-11T14:14:28;30.13;;;13.85;;
46415;SDS011;32620;51.704;7.822;2024-01-11T14:16:54;34.78;;;15.57;;